Portersville, Indiana
Current Conditions -  °F | °C
As of 11:35 AM on Thursday 30 Oct 2014 (Local Time) from KHNB Reporting Station
Clear Clear  
Wind Chill: 11°   Ceiling: Unl
Heat Index: 11°   Visibility: 10mi
Dew Point:   Wind: 3mph
Humidity: 58%   Direction: 240°WSW
Pressure: 30.17"   Gusts: NA
Location:  38.4175°N, 86.9656°W
Report Text: KHNB 301635Z AUTO 24003KT 10SM CLR 11/03 A3017 RMK AO1
Loading
Personal Weather Stations






























Interactive Weather Map
Tropical Storm Tracking
New forecast layout! Learn more

10-Day Weather Forecast

Advertisements
Track Severe Weather on mobile